Камери на живо
METAR for:LBPD (Plovdiv Arpt, PL, BU)
Text:LBPD 270300Z AUTO 11001KT 9999 NCD 13/09 Q1019 NOSIG
Temperature: 13.0°C ( 55°F)
Dewpoint: 9.0°C ( 48°F) [RH = 77%]
Pressure (altimeter):30.09 inches Hg (1019.0 mb)
Winds:from the ESE (110 degrees) at 1 MPH (1 knots; 0.5 m/s)
Visibility:6 or more sm (10+ km)
Ceiling:at least 12,000 feet AGL
Clouds:sky clear below 12,000 feet AGL

TAF for:LBPD (Plovdiv Arpt, PL, BU) issued at 2300 UTC 26 Sep 2021
Text:TAF LBPD 262300Z 2700/2724 VRB04KT CAVOK
Forecast period:0000 UTC 27 September 2021 to 0000 UTC 28 September 2021
Forecast type:FROM: standard forecast or significant change
Winds:variable direction winds at 5 MPH (4 knots; 2.1 m/s)
Visibility:6 or more sm (10+ km)
Clouds:missing
Weather:NSW (no significant weather)
Text:PROB40
Forecast period:0200 to 0500 UTC 27 September 2021
Forecast type:TEMPORARY: The following changes expected for less than half the time period
Visibility: 3 sm ( 5 km)
Clouds:missing
Weather:BR (mist)